Time;durP1;ratioP1;P1;durP2;ratioP2;P2;SDS_P1;SDS_P2;PMS_P1;PMS_P2;Temp;Humidity;BMP_temperature;BMP_pressure;BME280_temperature;BME280_humidity;BME280_pressure;Samples;Min_cycle;Max_cycle;Signal;HPM_P1;HPM_P2
2022/01/26 00:00:07;;;;;;;117.47;37.70;;;5.50;99.90;;;;;;4914519;29;20225;-85
2022/01/26 00:08:02;;;;;;;127.03;41.33;;;5.30;99.90;;;;;;4976403;28;20791;-83
2022/01/26 00:10:29;;;;;;;123.67;38.80;;;5.30;99.90;;;;;;4959149;28;20178;-83
2022/01/26 00:12:54;;;;;;;115.40;38.43;;;5.10;99.90;;;;;;4958344;28;20186;-85
2022/01/26 00:15:20;;;;;;;125.70;40.77;;;5.00;99.90;;;;;;4958146;28;20182;-83
2022/01/26 00:17:49;;;;;;;151.17;51.40;;;5.00;99.90;;;;;;4958382;28;20183;-85
2022/01/26 00:20:24;;;;;;;131.67;42.03;;;5.00;99.90;;;;;;4975880;28;20258;-85
2022/01/26 00:23:19;;;;;;;133.07;40.93;;;5.00;99.90;;;;;;4958803;28;20265;-83
2022/01/26 00:38:54;;;;;;;115.00;39.03;;;5.30;99.90;;;;;;4975772;28;20189;-86
2022/01/26 00:41:34;;;;;;;128.10;42.83;;;5.40;99.90;;;;;;4958004;28;20209;-85
2022/01/26 00:44:00;;;;;;;128.07;40.73;;;5.40;99.90;;;;;;4975395;28;20539;-85
2022/01/26 00:46:26;;;;;;;125.23;41.63;;;5.50;99.90;;;;;;4958220;28;20207;-85
2022/01/26 00:48:52;;;;;;;141.93;43.77;;;5.40;99.90;;;;;;4957798;28;20181;-85
2022/01/26 00:51:21;;;;;;;121.77;41.80;;;5.50;99.90;;;;;;4957813;28;20178;-85
2022/01/26 00:53:53;;;;;;;122.07;42.10;;;5.50;99.90;;;;;;4958094;28;20179;-83
2022/01/26 00:56:19;;;;;;;132.30;43.07;;;5.50;99.90;;;;;;4957887;28;20596;-85
2022/01/26 00:58:46;;;;;;;133.90;42.43;;;5.50;99.90;;;;;;4957528;28;20291;-83
2022/01/26 01:01:12;;;;;;;130.33;41.97;;;5.50;99.90;;;;;;4957711;28;20217;-85
2022/01/26 01:03:42;;;;;;;126.43;43.03;;;5.50;99.90;;;;;;4957728;28;20186;-85
2022/01/26 01:06:17;;;;;;;132.10;42.53;;;5.40;99.90;;;;;;4974667;28;20351;-85
2022/01/26 01:08:45;;;;;;;117.67;42.03;;;5.50;99.90;;;;;;4957543;28;20182;-85
2022/01/26 01:11:11;;;;;;;126.97;41.60;;;5.50;99.90;;;;;;4957480;28;20183;-84
2022/01/26 01:13:40;;;;;;;133.43;41.70;;;5.50;99.90;;;;;;4957828;28;20186;-84
2022/01/26 01:16:10;;;;;;;119.70;40.03;;;5.50;99.90;;;;;;4957332;28;20193;-83
2022/01/26 01:34:07;;;;;;;125.43;41.63;;;5.50;99.90;;;;;;4975031;28;20178;-85
2022/01/26 01:36:34;;;;;;;121.33;41.50;;;5.50;99.90;;;;;;4957079;28;20503;-83
2022/01/26 01:39:00;;;;;;;107.90;36.77;;;5.60;99.90;;;;;;4957455;28;20260;-85
2022/01/26 01:41:26;;;;;;;109.97;38.47;;;5.70;99.90;;;;;;4957194;28;20683;-85
2022/01/26 01:43:51;;;;;;;104.70;37.43;;;5.70;99.90;;;;;;4957042;28;20186;-82
2022/01/26 01:46:17;;;;;;;109.80;39.40;;;5.50;99.90;;;;;;4956854;28;20243;-85
2022/01/26 01:48:43;;;;;;;109.20;39.87;;;5.40;99.90;;;;;;4957254;28;20182;-83
2022/01/26 01:51:11;;;;;;;106.60;37.93;;;5.50;99.90;;;;;;4957221;28;20186;-85
2022/01/26 01:53:40;;;;;;;114.03;39.33;;;5.60;99.90;;;;;;4974394;28;20171;-83
2022/01/26 01:56:12;;;;;;;110.90;39.97;;;5.60;99.90;;;;;;4957108;28;20178;-84
2022/01/26 01:58:38;;;;;;;107.73;38.37;;;5.60;99.90;;;;;;4957016;28;20182;-85
2022/01/26 02:01:05;;;;;;;118.10;39.73;;;5.60;99.90;;;;;;4974173;28;20170;-83
2022/01/26 02:03:31;;;;;;;107.53;39.13;;;5.50;99.90;;;;;;4956824;28;20185;-83
2022/01/26 02:05:57;;;;;;;106.20;37.10;;;5.30;99.90;;;;;;4956932;28;20206;-84
2022/01/26 02:08:23;;;;;;;110.30;38.10;;;5.50;99.90;;;;;;4973890;28;20174;-83
2022/01/26 02:10:49;;;;;;;112.20;39.37;;;5.40;99.90;;;;;;4956926;28;20194;-83
2022/01/26 02:13:23;;;;;;;106.10;37.80;;;5.40;99.90;;;;;;4956687;28;20548;-83
2022/01/26 02:54:02;;;;;;;118.63;43.77;;;6.00;99.90;;;;;;4977275;28;20241;-84
2022/01/26 03:07:18;;;;;;;111.50;37.57;;;5.60;99.90;;;;;;4977397;28;20263;-84
2022/01/26 03:09:55;;;;;;;112.67;40.33;;;5.80;99.90;;;;;;4959953;28;20710;-84
2022/01/26 03:12:32;;;;;;;119.47;41.03;;;6.00;99.90;;;;;;4959945;28;20178;-84
2022/01/26 03:15:07;;;;;;;128.93;49.17;;;6.00;99.90;;;;;;4959926;28;20179;-84
2022/01/26 03:20:05;;;;;;;139.27;49.50;;;6.00;99.90;;;;;;4977186;28;20269;-84
2022/01/26 03:35:53;;;;;;;119.23;37.40;;;5.70;99.90;;;;;;4977147;28;20282;-84
2022/01/26 03:38:23;;;;;;;108.30;36.03;;;5.80;99.90;;;;;;4959527;28;20202;-83
2022/01/26 03:41:01;;;;;;;102.20;34.27;;;5.50;99.90;;;;;;4959168;28;20213;-83
2022/01/26 03:43:27;;;;;;;111.70;35.40;;;5.20;99.90;;;;;;4959225;28;20269;-83
2022/01/26 03:45:52;;;;;;;107.83;36.07;;;5.00;99.90;;;;;;4959135;28;20879;-83
2022/01/26 03:48:18;;;;;;;111.13;36.53;;;4.90;99.90;;;;;;4958903;28;20187;-83
2022/01/26 03:50:43;;;;;;;114.83;36.47;;;5.00;99.90;;;;;;4976130;28;20223;-83
2022/01/26 03:53:09;;;;;;;112.67;37.90;;;4.90;99.90;;;;;;4959106;28;20271;-84
2022/01/26 03:55:35;;;;;;;113.03;36.03;;;4.90;99.90;;;;;;4958731;28;20190;-83
2022/01/26 03:58:00;;;;;;;121.83;41.60;;;4.90;99.90;;;;;;4959188;28;20678;-84
2022/01/26 04:00:26;;;;;;;102.07;33.43;;;4.80;99.90;;;;;;4975946;28;20182;-84
2022/01/26 04:02:52;;;;;;;102.23;31.17;;;4.80;99.90;;;;;;4976383;28;20178;-84
2022/01/26 04:05:17;;;;;;;103.97;33.50;;;4.60;99.90;;;;;;4958871;28;20528;-84
2022/01/26 04:07:44;;;;;;;163.10;56.77;;;4.60;99.90;;;;;;4975868;28;20215;-83
2022/01/26 04:10:32;;;;;;;146.67;47.47;;;4.40;99.90;;;;;;4975717;28;20683;-84
2022/01/26 04:12:56;;;;;;;110.23;36.90;;;4.40;99.90;;;;;;4975682;28;20322;-84
2022/01/26 04:15:27;;;;;;;127.20;39.40;;;4.40;99.90;;;;;;4958991;28;20653;-83
2022/01/26 04:17:53;;;;;;;117.37;38.13;;;4.40;99.90;;;;;;4958879;28;20194;-84
2022/01/26 04:20:23;;;;;;;106.07;35.43;;;4.30;99.90;;;;;;4958644;28;20189;-83
2022/01/26 04:22:55;;;;;;;118.03;36.73;;;4.20;99.90;;;;;;4959173;28;20236;-84
2022/01/26 04:25:24;;;;;;;103.00;31.77;;;4.20;99.90;;;;;;4958217;28;20186;-84
2022/01/26 04:27:53;;;;;;;104.53;35.87;;;4.40;99.90;;;;;;4958592;28;20199;-83
2022/01/26 04:30:19;;;;;;;111.80;33.97;;;4.50;99.90;;;;;;4958602;28;20290;-83
2022/01/26 04:32:44;;;;;;;104.03;34.00;;;4.60;99.90;;;;;;4958667;28;20224;-84
2022/01/26 04:35:11;;;;;;;99.83;32.47;;;4.60;99.90;;;;;;4958612;28;20663;-84
2022/01/26 04:40:06;;;;;;;106.63;34.50;;;4.50;99.90;;;;;;4975786;28;20190;-83
2022/01/26 04:42:46;;;;;;;113.43;34.30;;;4.40;99.90;;;;;;4958174;28;20202;-84
2022/01/26 04:45:12;;;;;;;109.57;33.30;;;4.40;99.90;;;;;;4958197;28;20200;-84
2022/01/26 04:47:39;;;;;;;116.30;35.07;;;4.50;99.90;;;;;;4975115;28;20573;-84
2022/01/26 04:50:08;;;;;;;119.50;34.83;;;4.40;99.90;;;;;;4958447;28;20266;-84
2022/01/26 04:52:34;;;;;;;113.17;34.73;;;4.40;99.90;;;;;;4958108;28;20268;-83
2022/01/26 04:55:00;;;;;;;102.00;32.50;;;4.50;99.90;;;;;;4957977;28;20718;-84
2022/01/26 04:57:26;;;;;;;97.87;32.43;;;4.40;99.90;;;;;;4958152;28;20275;-83
2022/01/26 04:59:51;;;;;;;108.50;34.20;;;4.30;99.90;;;;;;4957361;28;20179;-82
2022/01/26 05:02:17;;;;;;;106.53;33.47;;;4.20;99.90;;;;;;4958031;28;20552;-84
2022/01/26 05:04:44;;;;;;;111.00;33.53;;;4.10;99.90;;;;;;4958053;28;20178;-84
2022/01/26 05:07:09;;;;;;;105.37;33.47;;;4.10;99.90;;;;;;4957909;28;20230;-84
2022/01/26 05:09:35;;;;;;;102.67;33.10;;;4.20;99.90;;;;;;4974781;28;20182;-84
2022/01/26 05:12:02;;;;;;;119.60;36.03;;;4.30;99.90;;;;;;4957922;28;20190;-84
2022/01/26 05:14:28;;;;;;;112.57;34.90;;;4.30;99.90;;;;;;4958078;28;20197;-84
2022/01/26 05:16:53;;;;;;;110.47;33.53;;;4.30;99.90;;;;;;4957741;28;20187;-84
2022/01/26 05:19:19;;;;;;;109.90;35.60;;;4.40;99.90;;;;;;4957847;28;20237;-85
2022/01/26 05:21:45;;;;;;;109.03;35.73;;;4.50;99.90;;;;;;4957631;28;20189;-84
2022/01/26 05:24:11;;;;;;;115.47;35.60;;;4.40;99.90;;;;;;4957375;28;20183;-84
2022/01/26 05:26:38;;;;;;;126.33;37.60;;;4.50;99.90;;;;;;4957505;28;20214;-84
2022/01/26 05:29:04;;;;;;;107.30;35.23;;;4.50;99.90;;;;;;4974803;28;20170;-84
2022/01/26 05:31:30;;;;;;;125.50;37.03;;;4.50;99.90;;;;;;4957634;28;20182;-84
2022/01/26 05:33:56;;;;;;;110.87;34.73;;;4.50;99.90;;;;;;4958030;28;20655;-84
2022/01/26 05:36:22;;;;;;;115.40;35.93;;;4.50;99.90;;;;;;4957690;28;20175;-84
2022/01/26 05:38:48;;;;;;;100.40;36.90;;;4.50;99.90;;;;;;4973962;28;20198;-83
2022/01/26 05:41:13;;;;;;;108.97;34.70;;;4.60;99.90;;;;;;4957391;28;20194;-84
2022/01/26 05:43:39;;;;;;;109.90;33.93;;;4.70;99.90;;;;;;4957153;28;20651;-84
2022/01/26 05:46:10;;;;;;;118.87;35.27;;;4.70;99.90;;;;;;4957320;28;20233;-84
2022/01/26 05:48:42;;;;;;;121.87;35.80;;;4.70;99.90;;;;;;4957163;28;20669;-84
2022/01/26 05:51:10;;;;;;;122.93;36.50;;;4.60;99.90;;;;;;4957631;28;20261;-84
2022/01/26 05:53:37;;;;;;;115.97;36.80;;;4.60;99.90;;;;;;4956895;28;20185;-84
2022/01/26 05:56:03;;;;;;;112.30;35.17;;;4.50;99.90;;;;;;4957384;28;20183;-84
2022/01/26 05:58:29;;;;;;;120.87;36.90;;;4.40;99.90;;;;;;4957102;28;20194;-83
2022/01/26 06:00:58;;;;;;;111.33;36.27;;;4.50;99.90;;;;;;4957411;28;20539;-84
2022/01/26 06:03:25;;;;;;;133.03;43.50;;;4.50;99.90;;;;;;4957001;28;20196;-83
2022/01/26 06:05:52;;;;;;;119.27;38.70;;;4.50;99.90;;;;;;4956970;28;20210;-84
2022/01/26 06:08:18;;;;;;;115.90;37.40;;;4.50;99.90;;;;;;4956813;28;20186;-83
2022/01/26 06:10:43;;;;;;;121.27;38.93;;;4.50;99.90;;;;;;4957803;28;20218;-84
2022/01/26 06:13:10;;;;;;;132.63;42.47;;;4.50;99.90;;;;;;4961197;28;20197;-84
2022/01/26 12:32:08;;;;;;;88.40;35.83;;;5.50;99.90;;;;;;4976241;28;20589;-90
2022/01/26 12:36:13;;;;;;;85.53;35.73;;;5.30;99.90;;;;;;4976226;28;20325;-91
2022/01/26 12:38:44;;;;;;;93.23;35.90;;;5.40;99.90;;;;;;4964506;28;20682;-91
2022/01/26 12:43:47;;;;;;;90.67;35.33;;;5.40;99.90;;;;;;4956757;29;20255;-91
2022/01/26 12:46:26;;;;;;;87.50;33.97;;;5.50;99.90;;;;;;4956311;29;20215;-91
2022/01/26 12:49:06;;;;;;;82.30;34.47;;;5.50;99.90;;;;;;4956742;29;20179;-90
2022/01/26 12:51:42;;;;;;;79.57;32.93;;;5.60;99.90;;;;;;4956510;29;20187;-91
2022/01/26 12:54:08;;;;;;;83.73;33.87;;;5.60;99.90;;;;;;4956042;29;20218;-89
2022/01/26 12:56:34;;;;;;;86.63;33.67;;;5.60;99.90;;;;;;4939000;29;20191;-89
2022/01/26 12:59:06;;;;;;;88.17;35.63;;;5.50;99.90;;;;;;4939080;29;20187;-90
2022/01/26 13:01:33;;;;;;;83.70;32.20;;;5.50;99.90;;;;;;4939004;29;20216;-90
2022/01/26 13:50:42;;;;;;;84.07;31.67;;;5.30;99.90;;;;;;4979925;23;20235;-94
2022/01/26 13:53:44;;;;;;;83.27;30.93;;;5.30;99.90;;;;;;4959114;28;20274;-96
2022/01/26 13:56:03;;;;;;;81.60;32.10;;;5.20;99.90;;;;;;4974407;28;20273;-96
2022/01/26 14:01:16;;;;;;;80.60;30.23;;;5.40;99.90;;;;;;4976658;28;20166;-96
2022/01/26 14:03:45;;;;;;;76.50;30.27;;;5.30;99.90;;;;;;4959669;28;20565;-94
2022/01/26 14:06:12;;;;;;;82.50;30.23;;;5.20;99.90;;;;;;4958689;28;20202;-95
2022/01/26 14:08:38;;;;;;;84.93;30.83;;;5.10;99.90;;;;;;4957688;28;20202;-95
2022/01/26 14:11:04;;;;;;;86.20;30.53;;;5.10;99.90;;;;;;4958767;28;20186;-96
2022/01/26 14:13:30;;;;;;;79.57;29.00;;;4.90;99.90;;;;;;4957976;28;20229;-96
2022/01/26 14:15:58;;;;;;;85.97;30.37;;;4.90;99.90;;;;;;4957864;28;20186;-96
2022/01/26 14:21:10;;;;;;;83.47;30.73;;;5.30;99.90;;;;;;4975566;28;20174;-94
2022/01/26 14:26:32;;;;;;;72.23;26.40;;;5.50;99.90;;;;;;4907088;28;20233;-96
2022/01/26 14:29:00;;;;;;;76.97;27.60;;;5.60;99.90;;;;;;4958557;28;20213;-94
2022/01/26 14:31:50;;;;;;;70.20;27.93;;;5.50;99.90;;;;;;4959712;28;20264;-95
2022/01/26 14:54:06;;;;;;;72.50;27.30;;;5.50;99.90;;;;;;4960594;29;20190;-96
2022/01/26 15:33:05;;;;;;;74.67;30.20;;;5.20;99.90;;;;;;4959209;29;20189;-94
2022/01/26 15:40:07;;;;;;;84.10;33.63;;;5.40;99.90;;;;;;4959109;29;20641;-96
2022/01/26 15:42:54;;;;;;;67.80;26.37;;;5.50;99.90;;;;;;4941263;29;20179;-96
2022/01/26 15:53:13;;;;;;;67.83;27.77;;;5.60;99.90;;;;;;4959136;29;20195;-96
2022/01/26 15:58:31;;;;;;;64.30;26.80;;;5.60;99.90;;;;;;4959304;29;20270;-96
2022/01/26 16:07:42;;;;;;;64.93;28.00;;;5.50;99.90;;;;;;4960896;29;20233;-96
2022/01/26 16:20:49;;;;;;;63.03;25.73;;;5.60;99.90;;;;;;4965540;29;20256;-95
2022/01/26 18:46:50;;;;;;;53.57;24.37;;;5.70;99.90;;;;;;4970031;28;20562;-81
2022/01/26 18:49:19;;;;;;;50.07;23.83;;;5.70;99.90;;;;;;4980302;28;20190;-88
2022/01/26 18:51:55;;;;;;;54.93;28.97;;;5.60;99.90;;;;;;4994071;28;20181;-85
2022/01/26 18:54:24;;;;;;;73.03;32.63;;;5.50;99.90;;;;;;4961109;28;20195;-89
2022/01/26 18:56:52;;;;;;;56.43;27.60;;;5.60;99.90;;;;;;4957125;28;20186;-87
2022/01/26 18:59:18;;;;;;;51.30;23.67;;;5.70;99.90;;;;;;4956776;28;20241;-87
2022/01/26 19:01:45;;;;;;;49.50;25.63;;;5.80;99.90;;;;;;4956701;28;20182;-88
2022/01/26 19:04:12;;;;;;;99.87;48.23;;;5.70;99.90;;;;;;4957296;28;20261;-86
2022/01/26 19:06:40;;;;;;;53.93;25.93;;;5.70;99.90;;;;;;4956876;28;20213;-86
2022/01/26 19:09:06;;;;;;;54.87;24.83;;;5.70;99.90;;;;;;4956884;28;20225;-87
2022/01/26 19:11:33;;;;;;;47.17;23.30;;;5.70;99.90;;;;;;4974033;28;20178;-88
2022/01/26 19:14:00;;;;;;;49.53;23.47;;;5.60;99.90;;;;;;4957218;28;20639;-87
2022/01/26 19:16:42;;;;;;;49.57;24.87;;;5.60;99.90;;;;;;4957028;28;20175;-86
2022/01/26 19:20:05;;;;;;;46.00;23.57;;;5.50;99.90;;;;;;4957760;28;20182;-87
2022/01/26 19:24:49;;;;;;;57.70;28.37;;;5.50;99.90;;;;;;4977205;28;20173;-86
2022/01/26 19:27:25;;;;;;;50.10;23.73;;;5.50;99.90;;;;;;4960074;28;20218;-86
2022/01/26 19:30:45;;;;;;;45.80;22.53;;;5.60;99.90;;;;;;4960283;28;20182;-86
2022/01/26 19:33:05;;;;;;;51.30;23.87;;;5.60;99.90;;;;;;4977335;28;20186;-86
2022/01/26 19:46:10;;;;;;;54.33;24.37;;;5.70;99.90;;;;;;4976675;28;20246;-87
2022/01/26 19:51:21;;;;;;;52.87;26.20;;;5.70;99.90;;;;;;4976682;28;20194;-86
2022/01/26 19:53:46;;;;;;;50.50;23.13;;;5.80;99.90;;;;;;4958765;28;20195;-84
2022/01/26 19:56:12;;;;;;;45.67;22.83;;;5.70;99.90;;;;;;4958830;28;20187;-85
2022/01/26 19:58:38;;;;;;;75.63;37.60;;;5.80;99.90;;;;;;4958653;28;20175;-85
2022/01/26 20:01:05;;;;;;;57.70;29.87;;;5.90;99.90;;;;;;4958719;28;20190;-85
2022/01/26 20:03:34;;;;;;;203.90;82.80;;;6.00;99.90;;;;;;4958815;28;20183;-82
2022/01/26 20:06:03;;;;;;;49.47;26.70;;;5.90;99.90;;;;;;4959398;28;20501;-87
2022/01/26 20:11:02;;;;;;;159.87;79.10;;;5.90;99.90;;;;;;4976611;28;20186;-85
2022/01/26 20:13:36;;;;;;;47.47;24.50;;;6.00;99.90;;;;;;4952896;28;20186;-87
2022/01/26 20:16:10;;;;;;;47.77;23.20;;;6.00;99.90;;;;;;4976730;28;20630;-86
2022/01/26 20:18:38;;;;;;;46.83;22.40;;;6.00;99.90;;;;;;4959216;28;20182;-88
2022/01/26 20:21:04;;;;;;;45.37;23.63;;;5.90;99.90;;;;;;4976503;28;20621;-88
2022/01/26 20:23:36;;;;;;;44.33;22.47;;;6.00;99.90;;;;;;4958983;28;20179;-86
2022/01/26 20:26:05;;;;;;;43.47;21.60;;;5.90;99.90;;;;;;4959181;28;20655;-86
2022/01/26 20:28:35;;;;;;;42.80;21.70;;;5.90;99.90;;;;;;4976416;28;20190;-86
2022/01/26 20:31:02;;;;;;;45.17;22.30;;;5.80;99.90;;;;;;4959137;28;20187;-88
2022/01/26 20:33:29;;;;;;;43.40;22.87;;;5.70;99.90;;;;;;4959237;28;20237;-88
2022/01/26 20:35:55;;;;;;;47.07;22.87;;;5.70;99.90;;;;;;4976115;28;20190;-87
2022/01/26 20:38:21;;;;;;;48.27;21.60;;;5.70;99.90;;;;;;4959090;28;20206;-88
2022/01/26 20:40:48;;;;;;;45.07;21.83;;;5.80;99.90;;;;;;4959020;28;20191;-88
2022/01/26 20:43:14;;;;;;;44.00;22.93;;;6.00;99.90;;;;;;4958956;28;20281;-87
2022/01/26 20:45:49;;;;;;;45.07;23.53;;;5.90;99.90;;;;;;4959199;28;20179;-87
2022/01/26 20:48:15;;;;;;;50.27;23.53;;;5.90;99.90;;;;;;4958753;28;20237;-88
2022/01/26 20:50:44;;;;;;;46.23;23.67;;;6.00;99.90;;;;;;4958649;28;20210;-87
2022/01/26 20:53:09;;;;;;;42.67;22.67;;;5.90;99.90;;;;;;4958510;28;20170;-87
2022/01/26 20:55:36;;;;;;;46.37;23.00;;;5.80;99.90;;;;;;4958716;28;20317;-88
2022/01/26 20:58:03;;;;;;;47.70;24.30;;;5.70;99.90;;;;;;4958725;28;20651;-88
2022/01/26 21:00:29;;;;;;;42.80;21.97;;;5.70;99.90;;;;;;4958420;28;20194;-88
2022/01/26 21:02:55;;;;;;;47.50;24.37;;;5.90;99.90;;;;;;4958440;28;20186;-88
2022/01/26 21:05:29;;;;;;;46.67;22.87;;;5.80;99.90;;;;;;4958428;28;20224;-86
2022/01/26 21:07:59;;;;;;;47.83;23.73;;;5.80;99.90;;;;;;4958381;28;20219;-86
2022/01/26 21:10:35;;;;;;;46.93;22.60;;;5.90;99.90;;;;;;4958468;28;20178;-87
2022/01/26 21:13:03;;;;;;;54.00;26.07;;;5.90;99.90;;;;;;4970419;28;20658;-87
2022/01/26 21:15:29;;;;;;;71.73;35.93;;;6.00;99.90;;;;;;4977340;28;20296;-88
2022/01/26 21:17:58;;;;;;;96.10;50.53;;;6.10;99.90;;;;;;4977662;28;20273;-87
2022/01/26 21:20:24;;;;;;;52.07;27.77;;;6.10;99.90;;;;;;4977666;28;20182;-87
2022/01/26 21:22:52;;;;;;;65.90;36.43;;;6.00;99.90;;;;;;4978051;28;20200;-87
2022/01/26 21:25:26;;;;;;;52.90;26.53;;;6.00;99.90;;;;;;4994704;28;20225;-86
2022/01/26 21:27:58;;;;;;;51.80;26.23;;;5.80;99.90;;;;;;4994415;28;20226;-87
2022/01/26 21:30:23;;;;;;;51.83;27.10;;;5.60;99.90;;;;;;4977430;28;20233;-87
2022/01/26 21:32:50;;;;;;;52.17;25.27;;;5.70;99.90;;;;;;4973724;28;20639;-88
2022/01/26 21:35:16;;;;;;;49.03;24.87;;;5.70;99.90;;;;;;4957686;28;20210;-87
2022/01/26 21:37:41;;;;;;;42.93;22.57;;;5.80;99.90;;;;;;4957790;28;20238;-86
2022/01/26 21:40:08;;;;;;;49.17;23.23;;;5.70;99.90;;;;;;4958779;28;20186;-87
2022/01/26 21:42:34;;;;;;;43.87;22.37;;;5.70;99.90;;;;;;4957926;28;20257;-87
2022/01/26 21:45:00;;;;;;;45.70;24.10;;;5.70;99.90;;;;;;4958738;28;20183;-86
2022/01/26 21:47:26;;;;;;;50.60;22.30;;;5.70;99.90;;;;;;4957761;28;20764;-86
2022/01/26 21:49:54;;;;;;;44.80;22.40;;;5.60;99.90;;;;;;4958802;28;20166;-86
2022/01/26 21:52:19;;;;;;;45.10;21.87;;;5.60;99.90;;;;;;4958921;28;20182;-85
2022/01/26 21:54:46;;;;;;;52.00;24.73;;;5.60;99.90;;;;;;4958603;28;20186;-88
2022/01/26 21:57:12;;;;;;;47.23;22.90;;;5.60;99.90;;;;;;4958354;28;20178;-86
2022/01/26 21:59:40;;;;;;;40.00;21.43;;;5.60;99.90;;;;;;4958785;28;20182;-86
2022/01/26 22:02:06;;;;;;;47.83;23.50;;;5.70;99.90;;;;;;4958410;28;20190;-86
2022/01/26 22:04:44;;;;;;;43.53;22.43;;;5.80;99.90;;;;;;4975575;28;20206;-88
2022/01/26 22:07:10;;;;;;;45.03;21.87;;;5.80;99.90;;;;;;4958833;28;20218;-88
2022/01/26 22:09:35;;;;;;;44.13;21.17;;;5.90;99.90;;;;;;4958729;28;20229;-88
2022/01/26 22:12:03;;;;;;;41.07;21.03;;;5.90;99.90;;;;;;4958686;28;20666;-87
2022/01/26 22:14:33;;;;;;;47.63;21.50;;;5.80;99.90;;;;;;4958381;28;20182;-87
2022/01/26 22:16:59;;;;;;;41.27;20.23;;;5.80;99.90;;;;;;4958562;28;20217;-88
2022/01/26 22:19:24;;;;;;;40.03;19.77;;;5.90;99.90;;;;;;4958156;28;20588;-88
2022/01/26 22:21:50;;;;;;;43.03;21.30;;;5.90;99.90;;;;;;4958545;28;20182;-88
2022/01/26 22:24:23;;;;;;;38.67;19.80;;;5.90;99.90;;;;;;4958531;28;20178;-87
2022/01/26 22:26:49;;;;;;;41.50;20.00;;;5.80;99.90;;;;;;4958503;28;20246;-87
2022/01/26 22:29:23;;;;;;;39.07;19.70;;;5.70;99.90;;;;;;4957680;28;20202;-88
2022/01/26 22:31:54;;;;;;;39.50;19.47;;;5.60;99.90;;;;;;4957329;28;20182;-84
2022/01/26 22:34:20;;;;;;;38.80;19.07;;;5.70;99.90;;;;;;4956283;28;20183;-84
2022/01/26 22:36:46;;;;;;;36.73;18.20;;;5.70;99.90;;;;;;4974949;28;20217;-87
2022/01/26 22:39:12;;;;;;;40.30;18.07;;;5.80;99.90;;;;;;4959564;28;20206;-87
2022/01/26 22:41:38;;;;;;;35.67;18.47;;;5.80;99.90;;;;;;4971415;28;20186;-87
2022/01/26 22:44:04;;;;;;;39.83;17.53;;;5.70;99.90;;;;;;4957108;28;20179;-88
2022/01/26 22:46:30;;;;;;;38.00;18.70;;;5.80;99.90;;;;;;4957020;28;20249;-89
2022/01/26 22:48:56;;;;;;;37.30;18.97;;;5.90;99.90;;;;;;4956985;28;20210;-88
2022/01/26 22:51:22;;;;;;;65.13;34.30;;;5.80;99.90;;;;;;4957825;28;20237;-89
2022/01/26 22:53:47;;;;;;;49.67;26.43;;;5.90;99.90;;;;;;4958452;28;20190;-89
2022/01/26 22:56:14;;;;;;;38.50;19.70;;;5.80;99.90;;;;;;4961506;28;20186;-88
2022/01/26 22:58:40;;;;;;;45.33;21.40;;;5.80;99.90;;;;;;4961558;28;20189;-86
2022/01/26 23:03:59;;;;;;;47.37;22.57;;;5.80;99.90;;;;;;4941665;28;20187;-89
2022/01/26 23:06:25;;;;;;;45.87;24.70;;;5.70;99.90;;;;;;4961297;28;20214;-88
2022/01/26 23:08:56;;;;;;;41.90;21.63;;;5.70;99.90;;;;;;4960192;28;20593;-88
2022/01/26 23:11:24;;;;;;;48.80;26.63;;;5.80;99.90;;;;;;4977902;28;20171;-88
2022/01/26 23:13:51;;;;;;;44.03;21.93;;;5.90;99.90;;;;;;4977233;28;20183;-87
2022/01/26 23:16:17;;;;;;;36.80;17.67;;;5.90;99.90;;;;;;4960366;28;20189;-86
2022/01/26 23:18:44;;;;;;;37.10;18.63;;;5.90;99.90;;;;;;4977414;28;20542;-88
2022/01/26 23:21:11;;;;;;;34.47;18.47;;;6.00;99.90;;;;;;4959884;28;20178;-87
2022/01/26 23:23:37;;;;;;;37.60;20.27;;;6.10;99.90;;;;;;4960745;28;20181;-89
2022/01/26 23:26:24;;;;;;;34.33;17.10;;;6.10;99.90;;;;;;4961243;28;20207;-87
